This is the latest recevied weather packets stored in our database for station/object F8BJE-13. If no packets are shown the sender has not sent any weather packets the latest 1 day(s).
| Time | Temp. | Humidity | Pressure | Rain* | Wind** | Luminosity | Snow |
|---|---|---|---|---|---|---|---|
| 1778102856 | 8.89° C | 99% | 1012.7 hPa | 0.25 mm | - | - | - |
| 1778101057 | 8.89° C | 99% | 1012.6 hPa | 0.25 mm | - | - | - |
| 1778099256 | 8.89° C | 98% | 1012.5 hPa | 0.25 mm | - | - | - |
| 1778093856 | 8.89° C | 97% | 1011.4 hPa | 0.25 mm | - | - | - |
| 1778086657 | 8.89° C | 97% | 1010.3 hPa | 0.25 mm | - | - | - |
| 1778066857 | 10.56° C | 88% | 1009.5 hPa | 0.76 mm | - | - | - |
| 1778065056 | 10.56° C | 90% | 1009.6 hPa | 0.76 mm | - | - | - |
| 1778063257 | 11.11° C | 90% | 1009.5 hPa | 0.76 mm | - | - | - |
| 1778061456 | 10.56° C | 90% | 1009.4 hPa | 0.51 mm | - | - | - |
| 1778059656 | 10.56° C | 91% | 1009.1 hPa | 1.27 mm | - | - | - |
| 1778057855 | 10° C | 90% | 1009 hPa | 2.29 mm | - | - | - |
| 1778054256 | 10° C | 87% | 1008.3 hPa | 0.25 mm | - | - | - |
| 1778050656 | 10.56° C | 88% | 1007.9 hPa | 0 mm | - | - | - |
| 1778048857 | 10.56° C | 90% | 1007.8 hPa | 0 mm | - | - | - |
| 1778047056 | 10° C | 91% | 1007.5 hPa | 0 mm | - | - | - |
| 1778045256 | 10° C | 94% | 1007.3 hPa | 0 mm | - | - | - |
| 1778043456 | 10° C | 95% | 1007.3 hPa | 0 mm | - | - | - |
| 1778041655 | 9.44° C | 94% | 1007.4 hPa | 0 mm | - | - | - |
| 1778039855 | 9.44° C | 93% | 1007.4 hPa | 0 mm | - | - | - |
| 1778038056 | 10° C | 92% | 1007.4 hPa | 0 mm | - | - | - |
| 1778036255 | 10° C | 91% | 1007.9 hPa | 0 mm | - | - | - |
| 1778034456 | 10° C | 90% | 1008 hPa | 0 mm | - | - | - |
| 1778032656 | 10° C | 86% | 1008.2 hPa | 0 mm | - | - | - |
| 1778029056 | 10.56° C | 88% | 1008.8 hPa | 0 mm | - | - | - |
| 1778025457 | 11.11° C | 85% | 1009.4 hPa | 0 mm | - | - | - |
* Rain latest hour (hover to see other rain measurements)
** Current wind speed in m/s (hover to see current wind gust speed)